sensor_id;sensor_type;location;lat;lon;timestamp;P1;durP1;ratioP1;P2;durP2;ratioP2
58756;SDS011;44527;47.460;19.016;2024-03-02T00:01:10;36.17;;;18.92;;
58756;SDS011;44527;47.460;19.016;2024-03-02T00:04:13;42.28;;;18.15;;
58756;SDS011;44527;47.460;19.016;2024-03-02T00:07:15;41.10;;;18.60;;
58756;SDS011;44527;47.460;19.016;2024-03-02T00:10:25;34.78;;;18.17;;
58756;SDS011;44527;47.460;19.016;2024-03-02T00:13:33;36.72;;;18.73;;
58756;SDS011;44527;47.460;19.016;2024-03-02T00:16:37;42.28;;;17.77;;
58756;SDS011;44527;47.460;19.016;2024-03-02T00:19:39;37.53;;;18.67;;
58756;SDS011;44527;47.460;19.016;2024-03-02T00:22:42;36.00;;;17.83;;
58756;SDS011;44527;47.460;19.016;2024-03-02T00:25:46;36.85;;;18.40;;
58756;SDS011;44527;47.460;19.016;2024-03-02T00:28:51;39.15;;;18.10;;
58756;SDS011;44527;47.460;19.016;2024-03-02T00:31:59;37.10;;;17.52;;
58756;SDS011;44527;47.460;19.016;2024-03-02T00:35:04;36.30;;;18.48;;
58756;SDS011;44527;47.460;19.016;2024-03-02T00:38:07;33.58;;;18.05;;
58756;SDS011;44527;47.460;19.016;2024-03-02T00:41:15;35.83;;;18.23;;
58756;SDS011;44527;47.460;19.016;2024-03-02T00:47:26;38.92;;;17.52;;
58756;SDS011;44527;47.460;19.016;2024-03-02T00:50:29;36.13;;;17.35;;
58756;SDS011;44527;47.460;19.016;2024-03-02T00:53:32;38.95;;;17.23;;
58756;SDS011;44527;47.460;19.016;2024-03-02T00:56:35;33.78;;;15.98;;
58756;SDS011;44527;47.460;19.016;2024-03-02T00:59:39;34.25;;;16.62;;
58756;SDS011;44527;47.460;19.016;2024-03-02T01:02:42;32.05;;;16.52;;
58756;SDS011;44527;47.460;19.016;2024-03-02T01:05:46;30.70;;;15.88;;
58756;SDS011;44527;47.460;19.016;2024-03-02T01:08:49;34.42;;;17.20;;
58756;SDS011;44527;47.460;19.016;2024-03-02T01:11:55;32.85;;;15.52;;
58756;SDS011;44527;47.460;19.016;2024-03-02T01:14:57;35.45;;;17.95;;
58756;SDS011;44527;47.460;19.016;2024-03-02T01:18:00;35.45;;;16.48;;
58756;SDS011;44527;47.460;19.016;2024-03-02T01:21:03;36.05;;;16.80;;
58756;SDS011;44527;47.460;19.016;2024-03-02T01:24:07;36.15;;;16.58;;
58756;SDS011;44527;47.460;19.016;2024-03-02T01:27:09;31.48;;;16.87;;
58756;SDS011;44527;47.460;19.016;2024-03-02T01:30:12;37.38;;;17.83;;
58756;SDS011;44527;47.460;19.016;2024-03-02T01:33:19;33.75;;;16.05;;
58756;SDS011;44527;47.460;19.016;2024-03-02T01:36:23;32.53;;;15.85;;
58756;SDS011;44527;47.460;19.016;2024-03-02T01:39:26;37.65;;;17.80;;
58756;SDS011;44527;47.460;19.016;2024-03-02T01:42:29;34.25;;;16.05;;
58756;SDS011;44527;47.460;19.016;2024-03-02T01:45:33;36.08;;;15.82;;
58756;SDS011;44527;47.460;19.016;2024-03-02T01:48:38;42.22;;;16.42;;
58756;SDS011;44527;47.460;19.016;2024-03-02T01:51:41;42.47;;;17.73;;
58756;SDS011;44527;47.460;19.016;2024-03-02T01:54:44;31.23;;;16.50;;
58756;SDS011;44527;47.460;19.016;2024-03-02T01:57:48;36.53;;;16.67;;
58756;SDS011;44527;47.460;19.016;2024-03-02T02:00:53;34.35;;;15.35;;
58756;SDS011;44527;47.460;19.016;2024-03-02T02:03:57;36.67;;;16.00;;
58756;SDS011;44527;47.460;19.016;2024-03-02T02:06:59;33.83;;;15.65;;
58756;SDS011;44527;47.460;19.016;2024-03-02T02:10:03;29.85;;;15.85;;
58756;SDS011;44527;47.460;19.016;2024-03-02T02:13:06;35.80;;;15.63;;
58756;SDS011;44527;47.460;19.016;2024-03-02T02:16:11;29.40;;;15.60;;
58756;SDS011;44527;47.460;19.016;2024-03-02T02:19:14;32.10;;;15.68;;
58756;SDS011;44527;47.460;19.016;2024-03-02T02:22:17;36.47;;;16.75;;
58756;SDS011;44527;47.460;19.016;2024-03-02T02:25:20;33.05;;;16.17;;
58756;SDS011;44527;47.460;19.016;2024-03-02T02:28:23;38.50;;;16.98;;
58756;SDS011;44527;47.460;19.016;2024-03-02T02:31:26;36.38;;;15.95;;
58756;SDS011;44527;47.460;19.016;2024-03-02T02:34:30;32.33;;;16.23;;
58756;SDS011;44527;47.460;19.016;2024-03-02T02:37:32;35.72;;;16.92;;
58756;SDS011;44527;47.460;19.016;2024-03-02T02:40:35;32.15;;;17.42;;
58756;SDS011;44527;47.460;19.016;2024-03-02T02:43:38;33.42;;;16.90;;
58756;SDS011;44527;47.460;19.016;2024-03-02T02:46:42;35.67;;;15.73;;
58756;SDS011;44527;47.460;19.016;2024-03-02T02:49:45;37.33;;;16.73;;
58756;SDS011;44527;47.460;19.016;2024-03-02T02:52:48;30.05;;;16.12;;
58756;SDS011;44527;47.460;19.016;2024-03-02T02:55:53;33.88;;;15.88;;
58756;SDS011;44527;47.460;19.016;2024-03-02T02:58:56;36.45;;;16.52;;
58756;SDS011;44527;47.460;19.016;2024-03-02T03:01:59;30.12;;;15.30;;
58756;SDS011;44527;47.460;19.016;2024-03-02T03:05:02;30.88;;;15.35;;
58756;SDS011;44527;47.460;19.016;2024-03-02T03:08:05;31.05;;;16.02;;
58756;SDS011;44527;47.460;19.016;2024-03-02T03:11:08;36.17;;;16.85;;
58756;SDS011;44527;47.460;19.016;2024-03-02T03:14:11;33.38;;;15.20;;
58756;SDS011;44527;47.460;19.016;2024-03-02T03:17:14;29.52;;;14.93;;
58756;SDS011;44527;47.460;19.016;2024-03-02T03:20:17;48.20;;;17.35;;
58756;SDS011;44527;47.460;19.016;2024-03-02T03:23:21;39.97;;;16.25;;
58756;SDS011;44527;47.460;19.016;2024-03-02T03:26:24;36.42;;;14.95;;
58756;SDS011;44527;47.460;19.016;2024-03-02T03:29:27;31.17;;;14.15;;
58756;SDS011;44527;47.460;19.016;2024-03-02T03:32:30;36.00;;;16.20;;
58756;SDS011;44527;47.460;19.016;2024-03-02T03:35:33;33.78;;;16.27;;
58756;SDS011;44527;47.460;19.016;2024-03-02T03:38:37;30.95;;;14.82;;
58756;SDS011;44527;47.460;19.016;2024-03-02T03:41:40;30.20;;;15.48;;
58756;SDS011;44527;47.460;19.016;2024-03-02T03:44:43;27.62;;;15.25;;
58756;SDS011;44527;47.460;19.016;2024-03-02T03:47:49;29.92;;;15.30;;
58756;SDS011;44527;47.460;19.016;2024-03-02T03:50:52;31.15;;;15.38;;
58756;SDS011;44527;47.460;19.016;2024-03-02T03:53:56;30.40;;;14.90;;
58756;SDS011;44527;47.460;19.016;2024-03-02T03:57:01;35.42;;;16.95;;
58756;SDS011;44527;47.460;19.016;2024-03-02T04:00:08;31.75;;;14.90;;
58756;SDS011;44527;47.460;19.016;2024-03-02T04:03:14;35.13;;;14.55;;
58756;SDS011;44527;47.460;19.016;2024-03-02T04:06:17;32.72;;;15.43;;
58756;SDS011;44527;47.460;19.016;2024-03-02T04:09:21;32.15;;;15.30;;
58756;SDS011;44527;47.460;19.016;2024-03-02T04:12:24;29.90;;;14.80;;
58756;SDS011;44527;47.460;19.016;2024-03-02T04:15:27;32.08;;;15.88;;
58756;SDS011;44527;47.460;19.016;2024-03-02T04:18:30;36.53;;;14.93;;
58756;SDS011;44527;47.460;19.016;2024-03-02T04:21:35;33.70;;;15.50;;
58756;SDS011;44527;47.460;19.016;2024-03-02T04:24:38;31.67;;;15.80;;
58756;SDS011;44527;47.460;19.016;2024-03-02T04:27:42;37.42;;;17.42;;
58756;SDS011;44527;47.460;19.016;2024-03-02T04:30:45;35.38;;;15.38;;
58756;SDS011;44527;47.460;19.016;2024-03-02T04:33:50;37.63;;;16.50;;
58756;SDS011;44527;47.460;19.016;2024-03-02T04:36:55;38.10;;;17.52;;
58756;SDS011;44527;47.460;19.016;2024-03-02T04:40:00;31.33;;;16.33;;
58756;SDS011;44527;47.460;19.016;2024-03-02T04:43:14;34.60;;;16.87;;
58756;SDS011;44527;47.460;19.016;2024-03-02T04:46:21;35.38;;;17.23;;
58756;SDS011;44527;47.460;19.016;2024-03-02T04:49:25;32.42;;;16.12;;
58756;SDS011;44527;47.460;19.016;2024-03-02T04:52:31;36.70;;;16.65;;
58756;SDS011;44527;47.460;19.016;2024-03-02T04:55:35;34.25;;;17.23;;
58756;SDS011;44527;47.460;19.016;2024-03-02T04:58:52;38.30;;;16.92;;
58756;SDS011;44527;47.460;19.016;2024-03-02T05:01:57;35.50;;;17.45;;
58756;SDS011;44527;47.460;19.016;2024-03-02T05:05:10;37.08;;;17.90;;
58756;SDS011;44527;47.460;19.016;2024-03-02T05:11:28;37.92;;;16.98;;
58756;SDS011;44527;47.460;19.016;2024-03-02T05:14:43;40.22;;;17.45;;
58756;SDS011;44527;47.460;19.016;2024-03-02T05:18:00;33.42;;;18.33;;
58756;SDS011;44527;47.460;19.016;2024-03-02T05:21:14;36.45;;;16.37;;
58756;SDS011;44527;47.460;19.016;2024-03-02T05:24:23;35.03;;;17.12;;
58756;SDS011;44527;47.460;19.016;2024-03-02T05:27:32;40.97;;;17.02;;
58756;SDS011;44527;47.460;19.016;2024-03-02T05:30:38;33.00;;;18.12;;
58756;SDS011;44527;47.460;19.016;2024-03-02T05:33:42;37.85;;;19.05;;
58756;SDS011;44527;47.460;19.016;2024-03-02T05:36:47;41.37;;;19.20;;
58756;SDS011;44527;47.460;19.016;2024-03-02T05:39:51;35.00;;;18.00;;
58756;SDS011;44527;47.460;19.016;2024-03-02T05:42:56;38.38;;;18.52;;
58756;SDS011;44527;47.460;19.016;2024-03-02T05:45:59;42.10;;;19.45;;
58756;SDS011;44527;47.460;19.016;2024-03-02T05:49:06;37.42;;;18.37;;
58756;SDS011;44527;47.460;19.016;2024-03-02T05:52:10;36.38;;;18.05;;
58756;SDS011;44527;47.460;19.016;2024-03-02T05:55:15;40.28;;;19.37;;
58756;SDS011;44527;47.460;19.016;2024-03-02T05:58:23;44.10;;;19.10;;
58756;SDS011;44527;47.460;19.016;2024-03-02T06:01:47;32.00;;;16.23;;
58756;SDS011;44527;47.460;19.016;2024-03-02T06:04:55;41.20;;;17.95;;
58756;SDS011;44527;47.460;19.016;2024-03-02T06:08:00;36.75;;;18.42;;
58756;SDS011;44527;47.460;19.016;2024-03-02T06:11:04;44.13;;;18.75;;
58756;SDS011;44527;47.460;19.016;2024-03-02T06:14:08;41.72;;;18.98;;
58756;SDS011;44527;47.460;19.016;2024-03-02T06:17:12;39.88;;;18.70;;
58756;SDS011;44527;47.460;19.016;2024-03-02T06:20:18;34.60;;;18.85;;
58756;SDS011;44527;47.460;19.016;2024-03-02T06:23:22;33.80;;;18.05;;
58756;SDS011;44527;47.460;19.016;2024-03-02T06:26:28;40.78;;;17.65;;
58756;SDS011;44527;47.460;19.016;2024-03-02T06:29:34;41.85;;;18.80;;
58756;SDS011;44527;47.460;19.016;2024-03-02T06:32:39;38.30;;;18.62;;
58756;SDS011;44527;47.460;19.016;2024-03-02T06:35:43;41.97;;;19.60;;
58756;SDS011;44527;47.460;19.016;2024-03-02T06:38:48;35.05;;;17.87;;
58756;SDS011;44527;47.460;19.016;2024-03-02T06:41:52;40.22;;;19.37;;
58756;SDS011;44527;47.460;19.016;2024-03-02T06:44:56;39.55;;;18.90;;
58756;SDS011;44527;47.460;19.016;2024-03-02T06:48:03;36.38;;;18.67;;
58756;SDS011;44527;47.460;19.016;2024-03-02T06:51:07;39.15;;;17.92;;
58756;SDS011;44527;47.460;19.016;2024-03-02T06:54:16;38.78;;;18.62;;
58756;SDS011;44527;47.460;19.016;2024-03-02T06:57:20;32.97;;;17.58;;
58756;SDS011;44527;47.460;19.016;2024-03-02T07:00:25;34.45;;;18.10;;
58756;SDS011;44527;47.460;19.016;2024-03-02T07:03:30;42.80;;;19.65;;
58756;SDS011;44527;47.460;19.016;2024-03-02T07:09:49;41.00;;;17.98;;
58756;SDS011;44527;47.460;19.016;2024-03-02T07:12:57;37.58;;;19.02;;
58756;SDS011;44527;47.460;19.016;2024-03-02T07:16:04;37.25;;;17.75;;
58756;SDS011;44527;47.460;19.016;2024-03-02T07:19:31;35.95;;;19.27;;
58756;SDS011;44527;47.460;19.016;2024-03-02T07:22:44;38.53;;;17.40;;
58756;SDS011;44527;47.460;19.016;2024-03-02T07:25:55;35.72;;;18.52;;
58756;SDS011;44527;47.460;19.016;2024-03-02T07:29:02;35.22;;;17.48;;
58756;SDS011;44527;47.460;19.016;2024-03-02T07:32:09;34.15;;;17.00;;
58756;SDS011;44527;47.460;19.016;2024-03-02T07:35:14;38.25;;;18.33;;
58756;SDS011;44527;47.460;19.016;2024-03-02T07:38:19;43.03;;;19.40;;
58756;SDS011;44527;47.460;19.016;2024-03-02T07:41:23;34.10;;;18.20;;
58756;SDS011;44527;47.460;19.016;2024-03-02T07:44:27;36.65;;;18.45;;
58756;SDS011;44527;47.460;19.016;2024-03-02T07:47:30;39.42;;;17.42;;
58756;SDS011;44527;47.460;19.016;2024-03-02T07:50:35;37.63;;;17.87;;
58756;SDS011;44527;47.460;19.016;2024-03-02T07:53:41;37.63;;;18.40;;
58756;SDS011;44527;47.460;19.016;2024-03-02T07:56:46;36.75;;;18.90;;
58756;SDS011;44527;47.460;19.016;2024-03-02T07:59:50;37.53;;;17.87;;
58756;SDS011;44527;47.460;19.016;2024-03-02T08:02:56;38.90;;;18.48;;
58756;SDS011;44527;47.460;19.016;2024-03-02T08:06:01;39.13;;;19.25;;
58756;SDS011;44527;47.460;19.016;2024-03-02T08:09:05;38.63;;;18.15;;
58756;SDS011;44527;47.460;19.016;2024-03-02T08:12:15;40.63;;;19.25;;
58756;SDS011;44527;47.460;19.016;2024-03-02T08:15:22;32.80;;;18.02;;
58756;SDS011;44527;47.460;19.016;2024-03-02T08:18:28;38.65;;;18.42;;
58756;SDS011;44527;47.460;19.016;2024-03-02T08:21:34;35.58;;;17.42;;
58756;SDS011;44527;47.460;19.016;2024-03-02T08:24:48;35.22;;;17.12;;
58756;SDS011;44527;47.460;19.016;2024-03-02T08:28:01;34.72;;;17.75;;
58756;SDS011;44527;47.460;19.016;2024-03-02T08:31:14;34.28;;;17.10;;
58756;SDS011;44527;47.460;19.016;2024-03-02T08:34:23;33.65;;;17.75;;
58756;SDS011;44527;47.460;19.016;2024-03-02T08:37:32;32.33;;;17.12;;
58756;SDS011;44527;47.460;19.016;2024-03-02T08:40:44;39.20;;;17.85;;
58756;SDS011;44527;47.460;19.016;2024-03-02T08:43:50;37.15;;;18.50;;
58756;SDS011;44527;47.460;19.016;2024-03-02T08:46:56;36.92;;;16.17;;
58756;SDS011;44527;47.460;19.016;2024-03-02T08:50:09;38.92;;;18.20;;
58756;SDS011;44527;47.460;19.016;2024-03-02T08:53:31;35.90;;;18.60;;
58756;SDS011;44527;47.460;19.016;2024-03-02T08:56:52;32.40;;;17.90;;
58756;SDS011;44527;47.460;19.016;2024-03-02T09:00:06;28.95;;;16.05;;
58756;SDS011;44527;47.460;19.016;2024-03-02T09:03:38;27.80;;;15.90;;
58756;SDS011;44527;47.460;19.016;2024-03-02T09:07:09;35.17;;;18.27;;
58756;SDS011;44527;47.460;19.016;2024-03-02T09:10:23;31.42;;;16.17;;
58756;SDS011;44527;47.460;19.016;2024-03-02T09:13:43;27.90;;;15.30;;
58756;SDS011;44527;47.460;19.016;2024-03-02T09:17:11;28.85;;;16.02;;
58756;SDS011;44527;47.460;19.016;2024-03-02T09:20:21;29.33;;;14.85;;
58756;SDS011;44527;47.460;19.016;2024-03-02T09:23:45;28.00;;;15.88;;
58756;SDS011;44527;47.460;19.016;2024-03-02T09:27:06;28.65;;;15.43;;
58756;SDS011;44527;47.460;19.016;2024-03-02T09:30:12;27.25;;;14.68;;
58756;SDS011;44527;47.460;19.016;2024-03-02T09:33:48;28.35;;;14.55;;
58756;SDS011;44527;47.460;19.016;2024-03-02T09:37:15;29.60;;;15.07;;
58756;SDS011;44527;47.460;19.016;2024-03-02T09:40:38;26.77;;;14.52;;
58756;SDS011;44527;47.460;19.016;2024-03-02T09:43:46;32.50;;;14.82;;
58756;SDS011;44527;47.460;19.016;2024-03-02T09:47:19;23.95;;;13.65;;
58756;SDS011;44527;47.460;19.016;2024-03-02T09:50:30;26.70;;;13.98;;
58756;SDS011;44527;47.460;19.016;2024-03-02T09:53:54;30.70;;;14.20;;
58756;SDS011;44527;47.460;19.016;2024-03-02T09:57:19;32.35;;;15.55;;
58756;SDS011;44527;47.460;19.016;2024-03-02T10:00:47;24.90;;;14.43;;
58756;SDS011;44527;47.460;19.016;2024-03-02T10:04:12;22.70;;;12.68;;
58756;SDS011;44527;47.460;19.016;2024-03-02T10:07:30;20.90;;;12.30;;
58756;SDS011;44527;47.460;19.016;2024-03-02T10:10:55;23.23;;;13.50;;
58756;SDS011;44527;47.460;19.016;2024-03-02T10:17:49;21.90;;;12.40;;
58756;SDS011;44527;47.460;19.016;2024-03-02T10:21:16;21.55;;;12.15;;
58756;SDS011;44527;47.460;19.016;2024-03-02T10:24:44;21.42;;;11.88;;
58756;SDS011;44527;47.460;19.016;2024-03-02T10:28:12;22.65;;;13.23;;
58756;SDS011;44527;47.460;19.016;2024-03-02T10:31:31;21.42;;;11.32;;
58756;SDS011;44527;47.460;19.016;2024-03-02T10:35:10;25.23;;;12.80;;
58756;SDS011;44527;47.460;19.016;2024-03-02T10:38:37;21.98;;;12.20;;
58756;SDS011;44527;47.460;19.016;2024-03-02T10:42:04;22.60;;;12.10;;
58756;SDS011;44527;47.460;19.016;2024-03-02T10:45:34;21.27;;;12.68;;
58756;SDS011;44527;47.460;19.016;2024-03-02T10:49:07;21.00;;;11.70;;
58756;SDS011;44527;47.460;19.016;2024-03-02T10:52:32;19.23;;;11.07;;
58756;SDS011;44527;47.460;19.016;2024-03-02T10:56:05;24.42;;;12.65;;
58756;SDS011;44527;47.460;19.016;2024-03-02T10:59:41;18.40;;;11.20;;
58756;SDS011;44527;47.460;19.016;2024-03-02T11:03:50;19.00;;;10.20;;
58756;SDS011;44527;47.460;19.016;2024-03-02T11:07:26;20.90;;;11.77;;
58756;SDS011;44527;47.460;19.016;2024-03-02T11:10:51;24.08;;;11.88;;
58756;SDS011;44527;47.460;19.016;2024-03-02T11:14:43;19.25;;;11.60;;
58756;SDS011;44527;47.460;19.016;2024-03-02T11:18:04;16.27;;;10.52;;
58756;SDS011;44527;47.460;19.016;2024-03-02T11:21:51;15.90;;;10.70;;
58756;SDS011;44527;47.460;19.016;2024-03-02T11:25:01;14.98;;;9.73;;
58756;SDS011;44527;47.460;19.016;2024-03-02T11:28:39;16.33;;;9.15;;
58756;SDS011;44527;47.460;19.016;2024-03-02T11:32:02;18.50;;;10.13;;
58756;SDS011;44527;47.460;19.016;2024-03-02T11:35:32;15.48;;;9.50;;
58756;SDS011;44527;47.460;19.016;2024-03-02T11:39:00;15.85;;;9.38;;
58756;SDS011;44527;47.460;19.016;2024-03-02T11:42:32;15.18;;;8.73;;
58756;SDS011;44527;47.460;19.016;2024-03-02T11:45:46;14.93;;;9.02;;
58756;SDS011;44527;47.460;19.016;2024-03-02T11:49:07;14.18;;;8.57;;
58756;SDS011;44527;47.460;19.016;2024-03-02T11:52:23;15.65;;;8.73;;
58756;SDS011;44527;47.460;19.016;2024-03-02T11:55:56;17.33;;;8.80;;
58756;SDS011;44527;47.460;19.016;2024-03-02T11:59:08;15.15;;;8.38;;
58756;SDS011;44527;47.460;19.016;2024-03-02T12:02:29;13.23;;;8.65;;
58756;SDS011;44527;47.460;19.016;2024-03-02T12:05:49;12.90;;;8.07;;
58756;SDS011;44527;47.460;19.016;2024-03-02T12:09:09;13.68;;;8.65;;
58756;SDS011;44527;47.460;19.016;2024-03-02T12:12:25;14.02;;;9.02;;
58756;SDS011;44527;47.460;19.016;2024-03-02T12:15:42;12.00;;;7.57;;
58756;SDS011;44527;47.460;19.016;2024-03-02T12:19:03;12.68;;;7.87;;
58756;SDS011;44527;47.460;19.016;2024-03-02T12:22:14;12.57;;;7.93;;
58756;SDS011;44527;47.460;19.016;2024-03-02T12:25:37;15.23;;;8.55;;
58756;SDS011;44527;47.460;19.016;2024-03-02T12:28:53;14.13;;;8.45;;
58756;SDS011;44527;47.460;19.016;2024-03-02T12:32:27;15.40;;;7.68;;
58756;SDS011;44527;47.460;19.016;2024-03-02T12:36:00;14.13;;;8.13;;
58756;SDS011;44527;47.460;19.016;2024-03-02T12:39:09;14.23;;;9.07;;
58756;SDS011;44527;47.460;19.016;2024-03-02T12:42:19;12.75;;;8.63;;
58756;SDS011;44527;47.460;19.016;2024-03-02T12:45:29;12.55;;;8.45;;
58756;SDS011;44527;47.460;19.016;2024-03-02T12:48:40;15.20;;;8.85;;
58756;SDS011;44527;47.460;19.016;2024-03-02T12:51:57;13.20;;;8.18;;
58756;SDS011;44527;47.460;19.016;2024-03-02T12:55:17;18.37;;;9.50;;
58756;SDS011;44527;47.460;19.016;2024-03-02T12:58:45;15.45;;;9.45;;
58756;SDS011;44527;47.460;19.016;2024-03-02T13:02:02;18.27;;;9.05;;
58756;SDS011;44527;47.460;19.016;2024-03-02T13:08:17;15.48;;;8.50;;
58756;SDS011;44527;47.460;19.016;2024-03-02T13:11:28;17.27;;;10.38;;
58756;SDS011;44527;47.460;19.016;2024-03-02T13:14:32;17.37;;;10.25;;
58756;SDS011;44527;47.460;19.016;2024-03-02T13:17:42;16.20;;;9.57;;
58756;SDS011;44527;47.460;19.016;2024-03-02T13:20:57;17.08;;;9.73;;
58756;SDS011;44527;47.460;19.016;2024-03-02T13:24:06;16.75;;;9.25;;
58756;SDS011;44527;47.460;19.016;2024-03-02T13:27:12;19.75;;;10.35;;
58756;SDS011;44527;47.460;19.016;2024-03-02T13:30:23;16.10;;;9.37;;
58756;SDS011;44527;47.460;19.016;2024-03-02T13:33:29;19.77;;;9.32;;
58756;SDS011;44527;47.460;19.016;2024-03-02T13:36:34;14.57;;;8.60;;
58756;SDS011;44527;47.460;19.016;2024-03-02T13:39:42;16.83;;;8.75;;
58756;SDS011;44527;47.460;19.016;2024-03-02T13:42:53;16.08;;;9.85;;
58756;SDS011;44527;47.460;19.016;2024-03-02T13:45:57;18.12;;;9.40;;
58756;SDS011;44527;47.460;19.016;2024-03-02T13:49:02;18.42;;;9.85;;
58756;SDS011;44527;47.460;19.016;2024-03-02T13:52:06;23.95;;;9.20;;
58756;SDS011;44527;47.460;19.016;2024-03-02T13:55:22;19.02;;;9.85;;
58756;SDS011;44527;47.460;19.016;2024-03-02T13:58:26;23.35;;;9.75;;
58756;SDS011;44527;47.460;19.016;2024-03-02T14:01:42;23.62;;;8.93;;
58756;SDS011;44527;47.460;19.016;2024-03-02T14:04:51;24.83;;;10.18;;
58756;SDS011;44527;47.460;19.016;2024-03-02T14:07:55;21.02;;;10.27;;
58756;SDS011;44527;47.460;19.016;2024-03-02T14:11:02;24.52;;;10.05;;
58756;SDS011;44527;47.460;19.016;2024-03-02T14:14:09;20.02;;;9.68;;
58756;SDS011;44527;47.460;19.016;2024-03-02T14:17:13;24.33;;;11.20;;
58756;SDS011;44527;47.460;19.016;2024-03-02T14:20:23;20.00;;;10.13;;
58756;SDS011;44527;47.460;19.016;2024-03-02T14:23:28;21.17;;;9.70;;
58756;SDS011;44527;47.460;19.016;2024-03-02T14:26:36;20.40;;;10.55;;
58756;SDS011;44527;47.460;19.016;2024-03-02T14:29:44;18.80;;;9.32;;
58756;SDS011;44527;47.460;19.016;2024-03-02T14:32:49;22.62;;;11.80;;
58756;SDS011;44527;47.460;19.016;2024-03-02T14:36:02;26.87;;;12.70;;
58756;SDS011;44527;47.460;19.016;2024-03-02T14:39:08;25.60;;;12.25;;
58756;SDS011;44527;47.460;19.016;2024-03-02T14:42:15;25.75;;;12.80;;
58756;SDS011;44527;47.460;19.016;2024-03-02T14:45:35;28.87;;;12.73;;
58756;SDS011;44527;47.460;19.016;2024-03-02T14:48:40;34.95;;;14.45;;
58756;SDS011;44527;47.460;19.016;2024-03-02T14:51:46;28.83;;;14.15;;
58756;SDS011;44527;47.460;19.016;2024-03-02T14:54:59;32.53;;;15.02;;
58756;SDS011;44527;47.460;19.016;2024-03-02T14:58:05;29.73;;;14.07;;
58756;SDS011;44527;47.460;19.016;2024-03-02T15:01:16;30.90;;;14.85;;
58756;SDS011;44527;47.460;19.016;2024-03-02T15:04:21;36.45;;;15.55;;
58756;SDS011;44527;47.460;19.016;2024-03-02T15:07:25;38.65;;;15.90;;
58756;SDS011;44527;47.460;19.016;2024-03-02T15:10:32;34.22;;;15.30;;
58756;SDS011;44527;47.460;19.016;2024-03-02T15:13:51;34.90;;;14.95;;
58756;SDS011;44527;47.460;19.016;2024-03-02T15:16:58;36.42;;;15.80;;
58756;SDS011;44527;47.460;19.016;2024-03-02T15:20:08;43.75;;;17.45;;
58756;SDS011;44527;47.460;19.016;2024-03-02T15:23:11;39.75;;;17.00;;
58756;SDS011;44527;47.460;19.016;2024-03-02T15:26:16;44.35;;;17.60;;
58756;SDS011;44527;47.460;19.016;2024-03-02T15:29:24;42.92;;;17.67;;
58756;SDS011;44527;47.460;19.016;2024-03-02T15:32:32;43.75;;;17.37;;
58756;SDS011;44527;47.460;19.016;2024-03-02T15:35:37;44.30;;;18.87;;
58756;SDS011;44527;47.460;19.016;2024-03-02T15:38:47;40.17;;;18.52;;
58756;SDS011;44527;47.460;19.016;2024-03-02T15:42:10;43.03;;;18.60;;
58756;SDS011;44527;47.460;19.016;2024-03-02T15:45:19;46.05;;;19.55;;
58756;SDS011;44527;47.460;19.016;2024-03-02T15:48:28;35.55;;;17.17;;
58756;SDS011;44527;47.460;19.016;2024-03-02T15:54:47;38.58;;;17.20;;
58756;SDS011;44527;47.460;19.016;2024-03-02T15:58:03;45.12;;;18.12;;
58756;SDS011;44527;47.460;19.016;2024-03-02T16:01:08;35.53;;;17.08;;
58756;SDS011;44527;47.460;19.016;2024-03-02T16:04:13;41.15;;;18.50;;
58756;SDS011;44527;47.460;19.016;2024-03-02T16:07:17;39.45;;;18.58;;
58756;SDS011;44527;47.460;19.016;2024-03-02T16:10:25;39.70;;;19.17;;
58756;SDS011;44527;47.460;19.016;2024-03-02T16:13:31;38.90;;;18.87;;
58756;SDS011;44527;47.460;19.016;2024-03-02T16:16:35;34.20;;;17.52;;
58756;SDS011;44527;47.460;19.016;2024-03-02T16:19:44;41.55;;;17.80;;
58756;SDS011;44527;47.460;19.016;2024-03-02T16:22:48;38.92;;;18.00;;
58756;SDS011;44527;47.460;19.016;2024-03-02T16:25:51;45.38;;;19.62;;
58756;SDS011;44527;47.460;19.016;2024-03-02T16:28:55;43.80;;;18.40;;
58756;SDS011;44527;47.460;19.016;2024-03-02T16:31:59;40.83;;;18.90;;
58756;SDS011;44527;47.460;19.016;2024-03-02T16:35:05;42.90;;;18.80;;
58756;SDS011;44527;47.460;19.016;2024-03-02T16:38:10;43.15;;;19.30;;
58756;SDS011;44527;47.460;19.016;2024-03-02T16:41:17;49.67;;;20.35;;
58756;SDS011;44527;47.460;19.016;2024-03-02T16:44:23;43.03;;;20.90;;
58756;SDS011;44527;47.460;19.016;2024-03-02T16:47:32;41.08;;;19.25;;
58756;SDS011;44527;47.460;19.016;2024-03-02T16:50:47;41.00;;;19.25;;
58756;SDS011;44527;47.460;19.016;2024-03-02T16:54:17;48.28;;;20.42;;
58756;SDS011;44527;47.460;19.016;2024-03-02T16:57:28;47.97;;;20.20;;
58756;SDS011;44527;47.460;19.016;2024-03-02T17:00:35;58.28;;;20.30;;
58756;SDS011;44527;47.460;19.016;2024-03-02T17:03:50;49.20;;;20.50;;
58756;SDS011;44527;47.460;19.016;2024-03-02T17:07:02;44.13;;;19.80;;
58756;SDS011;44527;47.460;19.016;2024-03-02T17:10:26;37.97;;;16.27;;
58756;SDS011;44527;47.460;19.016;2024-03-02T17:13:40;32.67;;;15.43;;
58756;SDS011;44527;47.460;19.016;2024-03-02T17:16:46;31.20;;;15.68;;
58756;SDS011;44527;47.460;19.016;2024-03-02T17:19:59;32.13;;;14.85;;
58756;SDS011;44527;47.460;19.016;2024-03-02T17:23:10;36.83;;;15.63;;
58756;SDS011;44527;47.460;19.016;2024-03-02T17:26:22;31.25;;;14.63;;
58756;SDS011;44527;47.460;19.016;2024-03-02T17:29:29;33.88;;;15.30;;
58756;SDS011;44527;47.460;19.016;2024-03-02T17:32:56;35.58;;;14.52;;
58756;SDS011;44527;47.460;19.016;2024-03-02T17:36:19;25.70;;;13.80;;
58756;SDS011;44527;47.460;19.016;2024-03-02T17:39:26;26.95;;;14.20;;
58756;SDS011;44527;47.460;19.016;2024-03-02T17:43:06;26.65;;;12.98;;
58756;SDS011;44527;47.460;19.016;2024-03-02T17:46:12;29.55;;;13.88;;
58756;SDS011;44527;47.460;19.016;2024-03-02T17:49:20;23.00;;;13.57;;
58756;SDS011;44527;47.460;19.016;2024-03-02T17:52:29;29.73;;;14.25;;
58756;SDS011;44527;47.460;19.016;2024-03-02T17:55:38;27.58;;;13.35;;
58756;SDS011;44527;47.460;19.016;2024-03-02T17:58:47;29.30;;;14.35;;
58756;SDS011;44527;47.460;19.016;2024-03-02T18:01:51;26.92;;;13.73;;
58756;SDS011;44527;47.460;19.016;2024-03-02T18:05:01;25.67;;;12.65;;
58756;SDS011;44527;47.460;19.016;2024-03-02T18:08:06;27.50;;;12.85;;
58756;SDS011;44527;47.460;19.016;2024-03-02T18:11:24;24.52;;;12.98;;
58756;SDS011;44527;47.460;19.016;2024-03-02T18:14:32;28.45;;;13.60;;
58756;SDS011;44527;47.460;19.016;2024-03-02T18:17:40;24.37;;;13.00;;
58756;SDS011;44527;47.460;19.016;2024-03-02T18:20:52;22.70;;;12.77;;
58756;SDS011;44527;47.460;19.016;2024-03-02T18:24:04;24.17;;;13.40;;
58756;SDS011;44527;47.460;19.016;2024-03-02T18:27:11;23.12;;;13.27;;
58756;SDS011;44527;47.460;19.016;2024-03-02T18:30:26;22.83;;;13.00;;
58756;SDS011;44527;47.460;19.016;2024-03-02T18:33:40;24.80;;;13.40;;
58756;SDS011;44527;47.460;19.016;2024-03-02T18:36:49;23.80;;;12.48;;
58756;SDS011;44527;47.460;19.016;2024-03-02T18:39:57;24.70;;;11.98;;